Time;durP1;ratioP1;P1;durP2;ratioP2;P2;SDS_P1;SDS_P2;PMS_P1;PMS_P2;Temp;Humidity;BMP_temperature;BMP_pressure;BME280_temperature;BME280_humidity;BME280_pressure;Samples;Min_cycle;Max_cycle;Signal;HPM_P1;HPM_P2
2023/07/17 00:02:19;;;;;;;4.60;2.42;;;;;;;;;;5071611;28;20025;-82
2023/07/17 00:04:44;;;;;;;5.93;2.85;;;;;;;;;;5056347;28;20125;-83
2023/07/17 00:07:10;;;;;;;7.03;2.90;;;;;;;;;;5046042;28;20381;-82
2023/07/17 00:09:35;;;;;;;5.88;2.88;;;;;;;;;;5055912;28;20090;-83
2023/07/17 00:12:01;;;;;;;6.20;2.90;;;;;;;;;;5074756;28;20380;-83
2023/07/17 00:14:35;;;;;;;6.70;2.97;;;;;;;;;;5065477;28;20040;-83
2023/07/17 00:17:01;;;;;;;4.93;2.80;;;;;;;;;;5061668;28;20044;-83
2023/07/17 00:19:26;;;;;;;6.13;2.63;;;;;;;;;;5067195;28;20395;-83
2023/07/17 00:21:52;;;;;;;5.97;2.90;;;;;;;;;;5047196;28;20035;-83
2023/07/17 00:24:23;;;;;;;6.90;2.80;;;;;;;;;;5060309;28;20028;-82
2023/07/17 00:26:48;;;;;;;6.05;3.05;;;;;;;;;;5056217;28;20035;-82
2023/07/17 00:29:30;;;;;;;6.78;3.17;;;;;;;;;;5054071;28;20033;-83
2023/07/17 00:31:57;;;;;;;5.53;2.60;;;;;;;;;;5064505;28;20036;-83
2023/07/17 00:34:23;;;;;;;5.00;2.40;;;;;;;;;;5056741;28;20213;-82
2023/07/17 00:36:48;;;;;;;5.55;2.80;;;;;;;;;;5075272;28;20037;-83
2023/07/17 00:39:14;;;;;;;5.05;2.88;;;;;;;;;;5065077;28;20039;-82
2023/07/17 00:41:40;;;;;;;5.15;2.67;;;;;;;;;;5056825;28;20067;-82
2023/07/17 00:44:08;;;;;;;4.78;2.50;;;;;;;;;;5055378;28;20037;-82
2023/07/17 00:46:35;;;;;;;6.55;2.90;;;;;;;;;;5077108;28;20032;-83
2023/07/17 00:49:03;;;;;;;5.20;2.60;;;;;;;;;;5057628;28;20035;-83
2023/07/17 00:51:30;;;;;;;5.53;2.90;;;;;;;;;;5047648;28;20575;-83
2023/07/17 00:53:55;;;;;;;7.78;3.13;;;;;;;;;;5056298;28;20059;-83
2023/07/17 00:56:21;;;;;;;5.45;2.83;;;;;;;;;;5049501;28;20028;-82
2023/07/17 00:58:47;;;;;;;4.97;2.63;;;;;;;;;;5062653;28;20040;-83
2023/07/17 01:01:12;;;;;;;5.13;2.67;;;;;;;;;;5070527;28;20173;-82
2023/07/17 01:03:38;;;;;;;5.53;2.90;;;;;;;;;;5058927;28;20060;-82
2023/07/17 01:06:04;;;;;;;5.55;2.80;;;;;;;;;;5064012;28;20036;-83
2023/07/17 01:08:31;;;;;;;6.95;2.78;;;;;;;;;;5077046;28;20033;-83
2023/07/17 01:10:56;;;;;;;7.95;2.88;;;;;;;;;;5056860;28;20039;-82
2023/07/17 01:13:24;;;;;;;5.97;2.80;;;;;;;;;;5057749;28;20032;-82
2023/07/17 01:15:49;;;;;;;;;;;;;;;;;;5059704;28;20131;-82
2023/07/17 01:18:15;;;;;;;5.47;2.88;;;;;;;;;;5058374;28;20023;-82
2023/07/17 01:20:41;;;;;;;6.50;3.03;;;;;;;;;;5056907;28;20029;-82
2023/07/17 01:23:13;;;;;;;5.75;2.70;;;;;;;;;;5066433;28;20376;-82
2023/07/17 01:25:38;;;;;;;5.45;2.53;;;;;;;;;;5056541;28;20070;-81
2023/07/17 01:28:03;;;;;;;5.53;2.53;;;;;;;;;;5071082;28;20064;-81
2023/07/17 01:30:29;;;;;;;5.03;2.42;;;;;;;;;;5064936;28;20851;-81
2023/07/17 01:32:58;;;;;;;4.85;2.45;;;;;;;;;;5056109;28;20037;-81
2023/07/17 01:35:23;;;;;;;5.68;3.05;;;;;;;;;;5063960;28;20647;-81
2023/07/17 01:37:48;;;;;;;5.15;2.67;;;;;;;;;;5071809;28;20036;-82
2023/07/17 01:40:15;;;;;;;5.35;2.97;;;;;;;;;;5070085;28;20069;-82
2023/07/17 01:42:40;;;;;;;5.13;2.80;;;;;;;;;;5057702;28;20084;-82
2023/07/17 01:45:09;;;;;;;5.50;2.92;;;;;;;;;;5055015;28;20064;-82
2023/07/17 01:47:35;;;;;;;6.72;2.80;;;;;;;;;;5056587;28;20070;-82
2023/07/17 01:50:02;;;;;;;5.63;2.65;;;;;;;;;;5057337;28;20434;-82
2023/07/17 01:52:27;;;;;;;6.20;2.80;;;;;;;;;;5062750;28;20028;-82
2023/07/17 01:54:53;;;;;;;6.95;3.15;;;;;;;;;;5066077;28;20113;-82
2023/07/17 01:57:18;;;;;;;5.95;2.83;;;;;;;;;;5058671;28;20036;-81
2023/07/17 01:59:44;;;;;;;5.63;2.70;;;;;;;;;;5061179;28;20633;-82
2023/07/17 02:02:09;;;;;;;5.20;2.72;;;;;;;;;;5067850;28;20036;-82
2023/07/17 02:04:35;;;;;;;8.43;2.85;;;;;;;;;;5064831;28;20107;-81
2023/07/17 02:07:00;;;;;;;5.47;2.75;;;;;;;;;;5065958;28;20032;-82
2023/07/17 02:09:26;;;;;;;5.35;2.88;;;;;;;;;;5068391;28;20059;-82
2023/07/17 02:11:51;;;;;;;6.72;3.20;;;;;;;;;;5076422;28;20043;-82
2023/07/17 02:14:16;;;;;;;6.28;3.10;;;;;;;;;;5064712;28;20052;-82
2023/07/17 02:16:42;;;;;;;6.00;2.95;;;;;;;;;;5054808;28;20043;-82
2023/07/17 02:19:10;;;;;;;6.65;2.85;;;;;;;;;;5067114;28;20039;-81
2023/07/17 02:21:36;;;;;;;6.07;2.95;;;;;;;;;;5083192;28;20379;-82
2023/07/17 02:24:01;;;;;;;6.03;2.97;;;;;;;;;;5065657;28;20048;-82
2023/07/17 02:26:27;;;;;;;6.88;2.67;;;;;;;;;;5068909;28;20446;-83
2023/07/17 02:28:52;;;;;;;7.32;3.10;;;;;;;;;;5059825;28;20043;-82
2023/07/17 02:31:21;;;;;;;6.35;2.90;;;;;;;;;;5067154;28;20028;-82
2023/07/17 02:33:47;;;;;;;6.38;3.13;;;;;;;;;;5059526;28;20055;-81
2023/07/17 02:36:12;;;;;;;6.65;3.15;;;;;;;;;;5074359;28;20105;-82
2023/07/17 02:38:37;;;;;;;5.45;3.00;;;;;;;;;;5057112;28;20040;-82
2023/07/17 02:41:03;;;;;;;5.30;2.85;;;;;;;;;;5067938;28;20028;-83
2023/07/17 02:43:29;;;;;;;4.95;2.90;;;;;;;;;;5052967;28;20522;-82
2023/07/17 02:46:03;;;;;;;5.72;3.15;;;;;;;;;;5056503;28;20522;-82
2023/07/17 02:48:28;;;;;;;6.72;3.20;;;;;;;;;;5059856;28;20523;-82
2023/07/17 02:50:54;;;;;;;6.18;2.95;;;;;;;;;;5068751;28;20028;-82
2023/07/17 02:53:19;;;;;;;5.82;3.05;;;;;;;;;;5053450;28;20043;-82
2023/07/17 02:55:45;;;;;;;8.40;3.20;;;;;;;;;;5066022;28;20396;-83
2023/07/17 02:58:10;;;;;;;6.22;2.55;;;;;;;;;;5067990;28;20036;-82
2023/07/17 03:00:36;;;;;;;5.25;2.63;;;;;;;;;;5067483;28;20032;-82
2023/07/17 03:03:07;;;;;;;5.70;2.75;;;;;;;;;;5059276;28;20571;-82
2023/07/17 03:05:44;;;;;;;6.50;3.10;;;;;;;;;;5071794;28;20069;-81
2023/07/17 03:08:10;;;;;;;6.53;2.95;;;;;;;;;;5057216;28;20036;-82
2023/07/17 03:10:36;;;;;;;6.13;2.95;;;;;;;;;;5072457;28;20442;-82
2023/07/17 03:13:01;;;;;;;6.55;3.20;;;;;;;;;;5068752;28;20036;-81
2023/07/17 03:15:27;;;;;;;7.05;3.00;;;;;;;;;;5055772;28;20032;-82
2023/07/17 03:17:52;;;;;;;5.13;3.08;;;;;;;;;;5072760;28;20047;-83
2023/07/17 03:20:18;;;;;;;5.60;3.03;;;;;;;;;;5066869;28;20666;-82
2023/07/17 03:22:44;;;;;;;6.75;3.03;;;;;;;;;;5066256;28;20047;-82
2023/07/17 03:25:09;;;;;;;7.82;2.97;;;;;;;;;;5062270;28;20032;-82
2023/07/17 03:27:36;;;;;;;6.03;3.08;;;;;;;;;;5065027;28;20029;-84
2023/07/17 03:30:01;;;;;;;5.95;3.10;;;;;;;;;;5033776;28;20040;-82
2023/07/17 03:32:35;;;;;;;5.40;3.00;;;;;;;;;;5059710;28;20488;-81
2023/07/17 03:35:00;;;;;;;5.40;3.17;;;;;;;;;;5053961;28;20482;-81
2023/07/17 03:37:26;;;;;;;5.85;3.30;;;;;;;;;;5076745;28;20035;-81
2023/07/17 03:39:53;;;;;;;6.22;3.38;;;;;;;;;;5064636;28;20190;-82
2023/07/17 03:42:18;;;;;;;6.63;3.57;;;;;;;;;;5064145;28;20032;-81
2023/07/17 03:44:44;;;;;;;6.70;2.95;;;;;;;;;;5061895;28;20495;-82
2023/07/17 03:47:09;;;;;;;7.03;3.00;;;;;;;;;;5063896;28;20043;-83
2023/07/17 03:49:35;;;;;;;7.65;3.40;;;;;;;;;;5062510;28;20037;-82
2023/07/17 03:52:04;;;;;;;8.68;3.50;;;;;;;;;;5057546;28;20025;-82
2023/07/17 03:54:29;;;;;;;5.95;3.60;;;;;;;;;;5065479;28;20473;-82
2023/07/17 03:56:54;;;;;;;6.07;3.13;;;;;;;;;;5065940;28;20121;-82
2023/07/17 03:59:24;;;;;;;5.95;3.25;;;;;;;;;;5066225;28;20385;-83
2023/07/17 04:01:58;;;;;;;7.20;3.50;;;;;;;;;;5065039;28;20089;-83
2023/07/17 04:04:23;;;;;;;7.18;3.47;;;;;;;;;;5063421;28;20404;-83
2023/07/17 04:06:49;;;;;;;7.22;3.35;;;;;;;;;;5063293;28;20036;-84
2023/07/17 04:09:15;;;;;;;6.00;3.40;;;;;;;;;;5064200;28;20085;-83
2023/07/17 04:11:41;;;;;;;7.47;3.33;;;;;;;;;;5067385;28;20064;-83
2023/07/17 04:14:08;;;;;;;6.95;3.50;;;;;;;;;;5055590;28;20055;-83
2023/07/17 04:16:36;;;;;;;;;;;;;;;;;;5063837;28;20518;-82
2023/07/17 04:19:01;;;;;;;6.57;3.45;;;;;;;;;;5067467;28;19912;-82
2023/07/17 04:21:27;;;;;;;6.43;3.75;;;;;;;;;;5059660;28;20394;-84
2023/07/17 04:23:53;;;;;;;7.05;3.45;;;;;;;;;;5058073;28;20070;-84
2023/07/17 04:26:26;;;;;;;6.55;3.63;;;;;;;;;;5065482;28;20025;-84
2023/07/17 04:28:51;;;;;;;6.22;3.40;;;;;;;;;;5049879;28;20419;-84
2023/07/17 04:31:17;;;;;;;6.85;3.60;;;;;;;;;;5054443;28;20089;-84
2023/07/17 04:33:45;;;;;;;8.73;3.83;;;;;;;;;;5064367;28;20044;-84
2023/07/17 04:36:10;;;;;;;7.60;3.35;;;;;;;;;;5059578;28;20420;-84
2023/07/17 04:38:36;;;;;;;7.03;3.80;;;;;;;;;;5061119;28;20048;-84
2023/07/17 04:41:01;;;;;;;6.28;3.55;;;;;;;;;;5054512;28;20028;-85
2023/07/17 04:43:26;;;;;;;6.35;3.60;;;;;;;;;;5061523;28;20036;-84
2023/07/17 04:45:52;;;;;;;6.80;3.30;;;;;;;;;;5059201;28;20492;-84
2023/07/17 04:48:17;;;;;;;5.70;3.20;;;;;;;;;;5059975;28;20060;-84
2023/07/17 04:50:45;;;;;;;7.57;3.55;;;;;;;;;;5058149;28;20372;-85
2023/07/17 04:53:11;;;;;;;5.85;3.40;;;;;;;;;;5088602;28;20097;-84
2023/07/17 04:55:36;;;;;;;6.07;3.38;;;;;;;;;;5058463;28;20036;-84
2023/07/17 04:58:01;;;;;;;6.88;3.53;;;;;;;;;;5066636;28;20040;-83
2023/07/17 05:00:30;;;;;;;7.25;4.03;;;;;;;;;;5061343;28;20033;-84
2023/07/17 05:02:56;;;;;;;8.45;3.42;;;;;;;;;;5061404;28;20106;-84
2023/07/17 05:05:22;;;;;;;6.90;3.23;;;;;;;;;;5057964;28;20476;-84
2023/07/17 05:07:47;;;;;;;7.35;3.40;;;;;;;;;;5047256;28;20175;-84
2023/07/17 05:10:14;;;;;;;6.75;3.47;;;;;;;;;;5064913;28;20065;-84
2023/07/17 05:12:40;;;;;;;5.80;3.55;;;;;;;;;;5065942;28;20048;-85
2023/07/17 05:15:06;;;;;;;6.78;3.08;;;;;;;;;;5064502;28;20032;-84
2023/07/17 05:17:34;;;;;;;7.82;3.40;;;;;;;;;;5046541;28;20152;-86
2023/07/17 05:20:00;;;;;;;5.97;3.40;;;;;;;;;;5072642;28;20032;-85
2023/07/17 05:22:26;;;;;;;6.88;3.45;;;;;;;;;;5054138;28;20054;-85
2023/07/17 05:24:52;;;;;;;6.72;3.65;;;;;;;;;;5052499;28;20044;-84
2023/07/17 05:27:17;;;;;;;7.57;3.55;;;;;;;;;;5069926;28;20101;-85
2023/07/17 05:29:43;;;;;;;6.68;3.60;;;;;;;;;;5059810;28;20052;-85
2023/07/17 05:32:08;;;;;;;6.22;3.67;;;;;;;;;;5052179;28;20031;-84
2023/07/17 05:34:34;;;;;;;11.60;3.67;;;;;;;;;;5062796;28;20048;-85
2023/07/17 05:36:59;;;;;;;8.57;3.50;;;;;;;;;;5061320;28;20063;-85
2023/07/17 05:39:26;;;;;;;7.40;3.33;;;;;;;;;;5061801;28;20411;-86
2023/07/17 05:41:52;;;;;;;6.68;3.50;;;;;;;;;;5062175;28;20589;-85
2023/07/17 05:44:17;;;;;;;6.38;3.63;;;;;;;;;;5068904;28;20127;-86
2023/07/17 05:46:43;;;;;;;7.35;3.08;;;;;;;;;;5057370;28;20514;-86
2023/07/17 05:49:08;;;;;;;7.80;3.47;;;;;;;;;;5067209;28;20043;-86
2023/07/17 05:51:34;;;;;;;6.13;3.30;;;;;;;;;;5079315;28;20089;-85
2023/07/17 05:53:59;;;;;;;8.68;3.50;;;;;;;;;;5062489;28;20027;-85
2023/07/17 05:56:24;;;;;;;7.53;3.63;;;;;;;;;;5059419;28;20655;-84
2023/07/17 05:58:50;;;;;;;6.32;3.30;;;;;;;;;;5048775;28;20435;-83
2023/07/17 06:01:15;;;;;;;7.13;3.40;;;;;;;;;;5043446;28;20487;-85
2023/07/17 06:03:40;;;;;;;7.60;3.22;;;;;;;;;;5058433;28;20043;-85
2023/07/17 06:06:06;;;;;;;5.60;3.05;;;;;;;;;;5061359;28;20418;-85
2023/07/17 06:08:31;;;;;;;5.75;3.28;;;;;;;;;;5061535;28;20060;-86
2023/07/17 06:10:57;;;;;;;6.30;2.95;;;;;;;;;;5060432;28;20100;-84
2023/07/17 06:13:22;;;;;;;6.40;3.20;;;;;;;;;;5065749;28;20048;-85
2023/07/17 06:15:48;;;;;;;7.00;3.30;;;;;;;;;;5077902;28;20037;-84
2023/07/17 06:18:13;;;;;;;9.10;3.65;;;;;;;;;;5074541;28;20786;-85
2023/07/17 06:20:46;;;;;;;8.90;3.03;;;;;;;;;;5067495;28;20105;-85
2023/07/17 06:23:12;;;;;;;7.75;3.40;;;;;;;;;;5058846;28;20085;-85
2023/07/17 06:25:38;;;;;;;6.35;3.13;;;;;;;;;;5073590;28;20033;-84
2023/07/17 06:28:04;;;;;;;5.60;3.20;;;;;;;;;;5072883;28;20060;-84
2023/07/17 06:30:31;;;;;;;9.15;3.40;;;;;;;;;;5067753;28;20432;-84
2023/07/17 06:32:57;;;;;;;6.57;3.15;;;;;;;;;;5067744;28;20033;-84
2023/07/17 06:35:22;;;;;;;6.53;3.40;;;;;;;;;;5067985;28;20036;-83
2023/07/17 06:37:48;;;;;;;5.90;3.30;;;;;;;;;;5045187;28;20036;-84
2023/07/17 06:40:13;;;;;;;6.28;3.60;;;;;;;;;;5059102;28;20097;-84
2023/07/17 06:42:38;;;;;;;5.47;3.20;;;;;;;;;;5062511;28;20043;-85
2023/07/17 06:45:07;;;;;;;6.13;3.45;;;;;;;;;;5068235;28;20041;-85
2023/07/17 06:47:33;;;;;;;7.10;3.38;;;;;;;;;;5046858;28;20484;-84
2023/07/17 06:49:58;;;;;;;6.75;3.40;;;;;;;;;;5065049;28;20150;-85
2023/07/17 06:52:24;;;;;;;5.68;3.10;;;;;;;;;;5060945;28;20102;-85
2023/07/17 06:54:49;;;;;;;7.75;3.55;;;;;;;;;;5065230;28;20040;-84
2023/07/17 06:57:15;;;;;;;5.72;2.95;;;;;;;;;;5061508;28;20033;-85
2023/07/17 06:59:41;;;;;;;7.07;3.30;;;;;;;;;;5059855;28;20119;-85
2023/07/17 07:02:09;;;;;;;8.05;3.25;;;;;;;;;;5058143;28;20484;-85
2023/07/17 07:04:54;;;;;;;6.63;3.20;;;;;;;;;;5063882;28;20036;-85
2023/07/17 07:07:20;;;;;;;8.05;3.30;;;;;;;;;;4985775;28;20096;-86
2023/07/17 07:09:46;;;;;;;8.43;4.07;;;;;;;;;;4977986;28;20084;-88
2023/07/17 07:12:11;;;;;;;8.07;3.35;;;;;;;;;;4963241;28;20050;-85
2023/07/17 07:14:37;;;;;;;6.43;3.30;;;;;;;;;;4944668;28;20046;-86
2023/07/17 07:17:05;;;;;;;8.02;3.17;;;;;;;;;;4975959;28;20332;-86
2023/07/17 07:19:30;;;;;;;9.80;3.30;;;;;;;;;;4954243;28;20042;-84
2023/07/17 07:21:56;;;;;;;6.82;3.13;;;;;;;;;;4959735;28;20580;-86
2023/07/17 07:24:28;;;;;;;7.03;3.47;;;;;;;;;;4964273;28;20111;-85
2023/07/17 07:26:54;;;;;;;7.72;3.60;;;;;;;;;;4966394;28;20133;-86
2023/07/17 07:29:19;;;;;;;7.35;3.13;;;;;;;;;;4985382;28;20482;-87
2023/07/17 07:31:44;;;;;;;5.22;3.08;;;;;;;;;;4967384;28;20116;-87
2023/07/17 07:34:10;;;;;;;6.03;2.80;;;;;;;;;;4969987;28;20058;-87
2023/07/17 07:36:35;;;;;;;6.30;3.03;;;;;;;;;;4967513;28;20191;-88
2023/07/17 07:39:12;;;;;;;4.82;2.88;;;;;;;;;;4981034;28;20046;-86
2023/07/17 07:41:38;;;;;;;7.25;2.90;;;;;;;;;;4983873;28;20688;-90
2023/07/17 07:44:04;;;;;;;5.90;3.00;;;;;;;;;;5003214;28;20044;-87
2023/07/17 07:46:37;;;;;;;7.82;3.35;;;;;;;;;;5063958;28;20515;-87
2023/07/17 07:49:03;;;;;;;7.18;2.80;;;;;;;;;;5064599;28;20032;-88
2023/07/17 07:51:28;;;;;;;5.93;2.78;;;;;;;;;;5060511;28;20112;-87
2023/07/17 07:53:54;;;;;;;6.55;3.00;;;;;;;;;;5052757;28;20047;-88
2023/07/17 07:56:19;;;;;;;5.80;3.08;;;;;;;;;;5084777;28;20040;-88
2023/07/17 07:58:45;;;;;;;6.45;3.05;;;;;;;;;;5078886;28;20040;-87
2023/07/17 08:01:11;;;;;;;6.45;2.95;;;;;;;;;;5057237;28;20099;-87
2023/07/17 08:03:39;;;;;;;6.00;2.57;;;;;;;;;;5065809;28;20040;-86
2023/07/17 08:06:04;;;;;;;;;;;;;;;;;;5073722;28;20263;-86
2023/07/17 08:08:37;;;;;;;5.28;2.60;;;;;;;;;;5062107;28;19966;-86
2023/07/17 08:11:02;;;;;;;7.30;2.90;;;;;;;;;;5065968;28;20487;-87
2023/07/17 08:13:28;;;;;;;5.07;3.00;;;;;;;;;;5066249;28;20034;-87
2023/07/17 08:16:11;;;;;;;8.82;3.08;;;;;;;;;;5071332;28;20036;-88
2023/07/17 08:18:37;;;;;;;7.43;3.10;;;;;;;;;;5053892;28;20057;-87
2023/07/17 08:21:02;;;;;;;7.00;2.50;;;;;;;;;;5064775;28;20032;-89
2023/07/17 08:23:28;;;;;;;5.93;2.88;;;;;;;;;;5063882;28;20035;-87
2023/07/17 08:25:53;;;;;;;6.22;2.67;;;;;;;;;;5051987;28;20098;-89
2023/07/17 08:28:18;;;;;;;4.88;2.30;;;;;;;;;;5072077;28;20039;-87
2023/07/17 08:30:47;;;;;;;4.85;2.70;;;;;;;;;;5065556;28;20032;-88
2023/07/17 08:33:12;;;;;;;5.88;2.65;;;;;;;;;;5061515;28;20050;-87
2023/07/17 08:35:38;;;;;;;6.13;2.53;;;;;;;;;;5074624;28;20033;-86
2023/07/17 08:38:04;;;;;;;8.63;2.80;;;;;;;;;;5064368;28;20028;-87
2023/07/17 08:40:30;;;;;;;5.90;2.38;;;;;;;;;;5073444;28;20068;-88
2023/07/17 08:42:58;;;;;;;4.47;2.40;;;;;;;;;;5051590;28;20128;-86
2023/07/17 08:45:24;;;;;;;6.03;2.60;;;;;;;;;;5059863;28;20032;-86
2023/07/17 08:47:53;;;;;;;5.05;2.13;;;;;;;;;;5055400;28;20036;-85
2023/07/17 08:50:19;;;;;;;5.38;2.35;;;;;;;;;;5074968;28;20032;-85
2023/07/17 08:53:06;;;;;;;7.43;2.50;;;;;;;;;;5057274;28;20032;-88
2023/07/17 08:55:32;;;;;;;4.03;2.00;;;;;;;;;;5025705;28;20136;-85
2023/07/17 08:58:00;;;;;;;6.35;2.22;;;;;;;;;;5000682;28;20592;-88
2023/07/17 09:00:25;;;;;;;5.32;2.13;;;;;;;;;;5019260;28;20044;-88
2023/07/17 09:02:58;;;;;;;6.70;2.40;;;;;;;;;;5025503;28;20416;-87
2023/07/17 09:05:24;;;;;;;6.05;2.20;;;;;;;;;;5002179;28;20184;-87
2023/07/17 09:07:52;;;;;;;6.82;2.15;;;;;;;;;;4993699;28;20124;-86
2023/07/17 09:10:27;;;;;;;6.68;2.28;;;;;;;;;;5004304;28;20496;-87
2023/07/17 09:12:59;;;;;;;5.03;2.20;;;;;;;;;;5019179;28;20121;-87
2023/07/17 09:15:28;;;;;;;5.28;2.45;;;;;;;;;;5021160;28;20378;-87
2023/07/17 09:18:04;;;;;;;6.40;2.00;;;;;;;;;;5028414;28;20732;-88
2023/07/17 09:20:30;;;;;;;6.53;2.00;;;;;;;;;;5003250;28;20068;-88
2023/07/17 09:23:00;;;;;;;5.55;1.90;;;;;;;;;;5008578;28;20065;-86
2023/07/17 09:25:28;;;;;;;7.25;2.50;;;;;;;;;;5036984;28;20536;-87
2023/07/17 09:27:53;;;;;;;5.20;2.25;;;;;;;;;;4981411;28;20045;-88
2023/07/17 09:30:22;;;;;;;5.13;2.08;;;;;;;;;;5009444;28;20044;-86
2023/07/17 09:32:49;;;;;;;4.78;2.28;;;;;;;;;;5043522;28;20032;-88
2023/07/17 09:35:19;;;;;;;6.10;2.20;;;;;;;;;;5079004;28;20395;-85
2023/07/17 09:37:45;;;;;;;6.07;2.40;;;;;;;;;;5055760;28;20146;-86
2023/07/17 09:40:11;;;;;;;4.97;1.95;;;;;;;;;;5061546;28;20116;-86
2023/07/17 09:42:38;;;;;;;5.67;2.07;;;;;;;;;;5057932;28;20396;-85
2023/07/17 09:45:04;;;;;;;6.22;2.20;;;;;;;;;;5064181;28;20812;-85
2023/07/17 09:47:31;;;;;;;8.53;2.50;;;;;;;;;;5064322;28;20054;-84
2023/07/17 09:50:06;;;;;;;;;;;;;;;;;;5066452;28;20129;-85
2023/07/17 09:52:32;;;;;;;7.28;1.98;;;;;;;;;;5042585;28;19913;-86
2023/07/17 09:55:01;;;;;;;5.60;2.03;;;;;;;;;;5054234;28;20078;-85
2023/07/17 09:57:36;;;;;;;7.78;2.33;;;;;;;;;;5089726;28;20770;-85
2023/07/17 10:00:13;;;;;;;6.45;2.40;;;;;;;;;;5054495;28;20557;-87
2023/07/17 10:02:51;;;;;;;5.93;2.42;;;;;;;;;;5047194;28;20036;-87
2023/07/17 10:05:16;;;;;;;6.22;2.25;;;;;;;;;;5052671;28;20035;-84
2023/07/17 10:07:43;;;;;;;6.57;2.70;;;;;;;;;;5063777;28;20392;-85
2023/07/17 10:10:10;;;;;;;6.07;2.25;;;;;;;;;;5071579;28;20090;-84
2023/07/17 10:12:37;;;;;;;4.20;2.00;;;;;;;;;;5058539;28;20035;-84
2023/07/17 10:15:03;;;;;;;;;;;;;;;;;;5061504;28;20381;-84
2023/07/17 10:17:32;;;;;;;5.22;2.40;;;;;;;;;;5065348;28;20383;-85
2023/07/17 10:20:09;;;;;;;5.95;2.35;;;;;;;;;;5067062;28;20535;-85
2023/07/17 10:22:51;;;;;;;4.57;2.38;;;;;;;;;;5036216;28;20028;-85
2023/07/17 10:25:34;;;;;;;6.68;2.30;;;;;;;;;;5053829;28;20036;-87
2023/07/17 10:28:08;;;;;;;6.45;2.05;;;;;;;;;;5076452;28;20432;-87
2023/07/17 10:30:36;;;;;;;4.88;1.90;;;;;;;;;;5059912;28;20037;-87
2023/07/17 10:33:15;;;;;;;5.65;2.08;;;;;;;;;;5066417;28;20032;-87
2023/07/17 10:36:00;;;;;;;4.60;1.83;;;;;;;;;;5065138;28;20040;-86
2023/07/17 10:38:38;;;;;;;7.25;2.13;;;;;;;;;;5050237;28;20038;-85
2023/07/17 10:41:13;;;;;;;6.28;2.35;;;;;;;;;;5076152;28;20383;-85
2023/07/17 10:43:49;;;;;;;4.63;2.00;;;;;;;;;;5078660;28;20040;-87
2023/07/17 10:46:15;;;;;;;5.20;1.90;;;;;;;;;;5068275;28;20035;-84
2023/07/17 10:48:40;;;;;;;6.22;2.20;;;;;;;;;;5062974;28;20116;-85
2023/07/17 10:51:06;;;;;;;4.60;1.95;;;;;;;;;;5062999;28;20031;-86
2023/07/17 10:53:32;;;;;;;7.10;2.20;;;;;;;;;;5057209;28;20044;-87
2023/07/17 10:55:57;;;;;;;6.72;2.10;;;;;;;;;;5065602;28;20079;-87
2023/07/17 10:58:23;;;;;;;6.57;2.17;;;;;;;;;;5068945;28;20040;-86
2023/07/17 11:00:56;;;;;;;5.57;2.10;;;;;;;;;;5066028;28;20032;-87
2023/07/17 11:03:24;;;;;;;6.38;2.20;;;;;;;;;;5057323;28;20509;-85
2023/07/17 11:05:53;;;;;;;4.85;2.00;;;;;;;;;;5073030;28;20032;-85
2023/07/17 11:08:18;;;;;;;5.70;2.38;;;;;;;;;;5058666;28;20131;-86
2023/07/17 11:10:47;;;;;;;6.47;2.00;;;;;;;;;;5066273;28;20567;-85
2023/07/17 11:13:12;;;;;;;4.90;2.13;;;;;;;;;;5076936;27;20089;-86
2023/07/17 11:15:38;;;;;;;6.35;1.90;;;;;;;;;;5067638;28;20032;-86
2023/07/17 11:18:13;;;;;;;5.80;1.80;;;;;;;;;;5068441;28;20057;-87
2023/07/17 11:20:39;;;;;;;6.55;1.60;;;;;;;;;;5064810;28;20112;-87
2023/07/17 11:23:10;;;;;;;6.25;1.77;;;;;;;;;;5078620;28;20023;-85
2023/07/17 11:25:36;;;;;;;4.50;1.80;;;;;;;;;;5068442;28;20671;-85
2023/07/17 11:28:01;;;;;;;5.07;1.70;;;;;;;;;;5067393;28;20125;-87
2023/07/17 11:30:27;;;;;;;3.57;1.70;;;;;;;;;;5067961;28;20436;-86
2023/07/17 11:32:58;;;;;;;4.20;1.83;;;;;;;;;;5068932;28;20044;-86
2023/07/17 11:35:45;;;;;;;4.80;1.73;;;;;;;;;;5055897;28;20064;-87
2023/07/17 11:38:15;;;;;;;4.03;1.63;;;;;;;;;;5068151;28;20047;-86
2023/07/17 11:40:59;;;;;;;4.80;1.90;;;;;;;;;;5076925;28;20111;-86
2023/07/17 11:43:28;;;;;;;5.38;1.40;;;;;;;;;;5068279;28;20035;-87
2023/07/17 11:46:01;;;;;;;4.13;1.65;;;;;;;;;;5053636;28;20062;-87
2023/07/17 11:48:31;;;;;;;6.07;2.10;;;;;;;;;;5060899;28;20053;-88
2023/07/17 11:50:57;;;;;;;4.82;1.50;;;;;;;;;;5053451;28;20040;-87
2023/07/17 11:53:23;;;;;;;3.67;1.33;;;;;;;;;;5067705;28;20028;-87
2023/07/17 11:55:56;;;;;;;4.03;1.47;;;;;;;;;;5046078;28;20044;-86
2023/07/17 11:58:24;;;;;;;6.60;1.60;;;;;;;;;;5051557;28;20122;-86
2023/07/17 12:00:53;;;;;;;4.53;1.80;;;;;;;;;;5063877;28;20515;-88
2023/07/17 12:03:29;;;;;;;4.97;1.83;;;;;;;;;;5071705;28;20392;-88
2023/07/17 12:05:55;;;;;;;4.25;1.50;;;;;;;;;;5075155;28;20043;-87
2023/07/17 12:08:20;;;;;;;5.00;1.85;;;;;;;;;;5067456;28;20029;-88
2023/07/17 12:11:10;;;;;;;5.78;1.90;;;;;;;;;;5067573;28;20066;-87
2023/07/17 12:13:36;;;;;;;4.47;1.90;;;;;;;;;;4985352;28;20038;-88
2023/07/17 12:16:01;;;;;;;5.60;1.80;;;;;;;;;;4987540;28;20042;-85
2023/07/17 12:18:31;;;;;;;5.47;2.00;;;;;;;;;;4979996;28;20041;-86
2023/07/17 12:20:57;;;;;;;4.55;2.08;;;;;;;;;;4958506;28;20072;-85
2023/07/17 12:23:23;;;;;;;4.50;1.73;;;;;;;;;;4988568;28;20061;-86
2023/07/17 12:25:49;;;;;;;4.85;1.90;;;;;;;;;;4972900;28;20030;-87
2023/07/17 12:28:16;;;;;;;3.17;1.40;;;;;;;;;;4981146;28;20153;-88
2023/07/17 12:30:42;;;;;;;3.88;1.63;;;;;;;;;;4990095;28;20119;-89
2023/07/17 12:33:07;;;;;;;5.35;1.58;;;;;;;;;;4973423;28;20131;-86
2023/07/17 12:35:38;;;;;;;4.63;1.73;;;;;;;;;;4973689;28;20041;-87
2023/07/17 12:38:03;;;;;;;4.43;1.75;;;;;;;;;;4970091;28;20123;-85
2023/07/17 12:40:29;;;;;;;6.05;1.60;;;;;;;;;;4987939;28;20038;-85
2023/07/17 12:42:54;;;;;;;6.32;1.98;;;;;;;;;;4989750;28;20129;-86
2023/07/17 12:45:20;;;;;;;5.07;1.73;;;;;;;;;;4997352;28;20442;-87
2023/07/17 12:47:45;;;;;;;6.95;2.08;;;;;;;;;;4988670;28;20088;-86
2023/07/17 12:50:11;;;;;;;4.28;1.80;;;;;;;;;;5012865;28;20052;-87
2023/07/17 12:52:36;;;;;;;4.65;1.73;;;;;;;;;;5059969;28;20040;-86
2023/07/17 12:55:02;;;;;;;4.60;1.95;;;;;;;;;;5070333;28;20044;-85
2023/07/17 12:57:28;;;;;;;3.90;1.50;;;;;;;;;;5034262;28;20029;-86
2023/07/17 12:59:53;;;;;;;4.40;1.77;;;;;;;;;;5074835;28;20040;-85
2023/07/17 13:02:21;;;;;;;4.28;1.70;;;;;;;;;;5063543;28;20040;-85
2023/07/17 13:04:47;;;;;;;5.70;1.83;;;;;;;;;;5050829;28;20492;-85
2023/07/17 13:07:12;;;;;;;6.40;1.85;;;;;;;;;;5043910;28;20042;-84
2023/07/17 13:09:38;;;;;;;3.75;1.73;;;;;;;;;;5053933;28;20055;-84
2023/07/17 13:12:05;;;;;;;5.72;1.88;;;;;;;;;;5066115;28;20360;-86
2023/07/17 13:14:31;;;;;;;;;;;;;;;;;;5077468;28;20036;-87
2023/07/17 13:17:17;;;;;;;4.18;1.92;;;;;;;;;;5068643;28;19920;-87
2023/07/17 13:19:45;;;;;;;5.70;1.73;;;;;;;;;;5073709;28;20029;-87
2023/07/17 13:22:11;;;;;;;5.50;2.00;;;;;;;;;;5058174;28;20492;-86
2023/07/17 13:24:39;;;;;;;5.05;1.88;;;;;;;;;;5064419;28;20036;-88
2023/07/17 13:27:05;;;;;;;3.83;1.75;;;;;;;;;;5054965;28;20028;-85
2023/07/17 13:29:30;;;;;;;5.20;1.95;;;;;;;;;;5061479;28;20403;-88
2023/07/17 13:31:59;;;;;;;4.57;1.70;;;;;;;;;;5053825;28;20047;-86
2023/07/17 13:34:38;;;;;;;6.43;2.00;;;;;;;;;;5049989;28;20096;-88
2023/07/17 13:37:04;;;;;;;4.05;1.73;;;;;;;;;;5056341;28;20451;-87
2023/07/17 13:39:29;;;;;;;4.07;1.60;;;;;;;;;;5056653;28;20040;-87
2023/07/17 13:41:55;;;;;;;5.55;1.70;;;;;;;;;;5041637;28;20059;-88
2023/07/17 13:44:21;;;;;;;4.80;1.63;;;;;;;;;;5061784;28;20392;-88
2023/07/17 13:46:48;;;;;;;4.43;1.50;;;;;;;;;;5059209;28;20033;-87
2023/07/17 13:49:17;;;;;;;3.40;1.50;;;;;;;;;;5042542;28;20032;-88
2023/07/17 13:51:45;;;;;;;4.57;1.55;;;;;;;;;;5065531;28;20036;-89
2023/07/17 13:54:12;;;;;;;4.47;1.70;;;;;;;;;;5060553;28;20512;-87
2023/07/17 13:56:38;;;;;;;9.35;5.35;;;;;;;;;;5048322;28;20377;-89
2023/07/17 13:59:15;;;;;;;8.15;3.05;;;;;;;;;;5053034;28;20039;-88
2023/07/17 14:01:41;;;;;;;4.25;1.60;;;;;;;;;;5067360;28;20052;-89
2023/07/17 14:04:07;;;;;;;8.02;2.65;;;;;;;;;;5054576;28;20154;-83
2023/07/17 14:06:33;;;;;;;3.75;1.30;;;;;;;;;;5069686;28;20040;-83
2023/07/17 14:08:58;;;;;;;5.60;2.15;;;;;;;;;;5079347;28;20115;-83
2023/07/17 14:11:24;;;;;;;8.07;1.90;;;;;;;;;;5054574;28;20031;-82
2023/07/17 14:13:50;;;;;;;4.72;1.90;;;;;;;;;;5059795;28;20049;-83
2023/07/17 14:16:18;;;;;;;5.05;1.70;;;;;;;;;;5051234;28;20041;-83
2023/07/17 14:18:43;;;;;;;4.15;2.10;;;;;;;;;;5068693;28;20052;-83
2023/07/17 14:21:09;;;;;;;6.15;1.85;;;;;;;;;;5081487;28;20078;-83
2023/07/17 14:23:34;;;;;;;3.78;1.63;;;;;;;;;;5065970;28;20063;-82
2023/07/17 14:26:12;;;;;;;4.60;1.70;;;;;;;;;;5076004;28;20032;-83
2023/07/17 14:28:38;;;;;;;3.35;1.63;;;;;;;;;;5060150;28;20043;-82
2023/07/17 14:31:03;;;;;;;4.32;1.65;;;;;;;;;;5076626;28;20480;-84
2023/07/17 14:33:32;;;;;;;3.65;1.45;;;;;;;;;;5076372;28;20040;-82
2023/07/17 14:35:58;;;;;;;3.78;1.70;;;;;;;;;;5060522;28;20085;-80
2023/07/17 14:38:23;;;;;;;4.32;1.50;;;;;;;;;;5068682;28;20048;-84
2023/07/17 14:41:09;;;;;;;5.95;1.85;;;;;;;;;;5058306;28;20070;-82
2023/07/17 14:43:55;;;;;;;4.97;1.90;;;;;;;;;;4989113;28;20589;-83
2023/07/17 14:46:23;;;;;;;6.13;1.77;;;;;;;;;;4950506;28;20043;-82
2023/07/17 14:48:48;;;;;;;5.47;1.40;;;;;;;;;;4915396;28;20043;-83